createdAt,value
2022-11-19T08:51:13.352Z,100.00
2022-11-19T08:53:39.774Z,96.91
2022-11-19T08:56:06.374Z,95.13
2022-11-19T08:58:32.775Z,93.04
2022-11-19T09:00:59.439Z,91.68
2022-11-19T09:03:25.990Z,92.08
2022-11-19T09:05:53.349Z,90.56
2022-11-19T09:08:19.704Z,93.25
2022-11-19T09:10:46.032Z,90.97
2022-11-19T09:13:12.392Z,92.20
2022-11-19T09:15:40.017Z,92.71
2022-11-19T09:18:06.531Z,91.73
2022-11-19T09:20:32.898Z,90.68
2022-11-19T09:22:59.266Z,92.25
2022-11-19T09:25:25.675Z,91.10
2022-11-19T09:27:51.994Z,90.63
2022-11-19T09:30:18.332Z,90.59
2022-11-19T09:32:44.584Z,89.24
2022-11-19T09:35:10.852Z,88.33
2022-11-19T09:37:37.085Z,89.15
2022-11-19T09:40:04.679Z,86.47
2022-11-19T09:42:30.980Z,86.05
2022-11-19T09:44:57.281Z,85.90
2022-11-19T09:47:23.529Z,85.74
2022-11-19T09:49:49.747Z,85.43
2022-11-19T09:52:16.133Z,85.92
2022-11-19T09:54:42.359Z,85.76
2022-11-19T09:57:08.588Z,86.21
2022-11-19T09:59:34.910Z,88.39
2022-11-19T10:02:01.143Z,89.04
2022-11-19T10:04:27.537Z,88.45
2022-11-19T10:06:53.769Z,87.71
2022-11-19T10:09:19.979Z,87.95
2022-11-19T10:11:46.190Z,88.33
2022-11-19T10:14:12.561Z,87.36
2022-11-19T10:16:38.962Z,87.03
2022-11-19T10:19:05.244Z,88.25
2022-11-19T10:21:31.605Z,87.09
2022-11-19T10:24:00.750Z,86.40
2022-11-19T10:26:26.986Z,88.30
2022-11-19T10:28:53.188Z,84.45
2022-11-19T10:31:19.406Z,85.39
2022-11-19T10:33:45.660Z,84.73
2022-11-19T10:36:11.953Z,85.05
2022-11-19T10:38:38.296Z,83.11
2022-11-19T10:41:04.570Z,82.34
2022-11-19T10:43:30.806Z,82.88
2022-11-19T10:46:00.083Z,83.10
2022-11-19T10:48:26.372Z,82.27
2022-11-19T10:50:52.617Z,81.70
2022-11-19T10:56:18.957Z,81.60
2022-11-19T10:58:45.245Z,81.23
2022-11-19T11:01:11.844Z,81.71
2022-11-19T11:03:38.167Z,82.12
2022-11-19T11:06:06.310Z,81.46
2022-11-19T11:08:32.548Z,81.85
2022-11-19T11:10:58.796Z,81.33
2022-11-19T11:13:54.429Z,79.92
2022-11-19T11:16:20.638Z,80.87
2022-11-19T11:18:47.051Z,81.03
2022-11-19T11:21:13.323Z,81.32
2022-11-19T11:23:39.932Z,80.10
2022-11-19T11:26:06.249Z,80.65
2022-11-19T11:28:32.511Z,79.84
2022-11-19T11:30:58.757Z,80.01
2022-11-19T11:33:25.051Z,80.05
2022-11-19T11:35:51.326Z,80.16
2022-11-19T11:38:17.743Z,80.19
2022-11-19T11:40:44.087Z,80.17
2022-11-19T11:43:10.367Z,80.50
2022-11-19T11:45:36.599Z,80.24
2022-11-19T11:48:02.973Z,79.94
2022-11-19T11:50:29.228Z,80.44
2022-11-19T11:52:55.469Z,79.34
2022-11-19T11:55:21.719Z,78.92
2022-11-19T11:57:47.978Z,78.53
2022-11-19T12:00:14.198Z,78.63
2022-11-19T12:02:40.652Z,78.45
2022-11-19T12:05:06.904Z,79.06
2022-11-19T12:07:33.194Z,77.06
2022-11-19T12:10:03.523Z,77.80
2022-11-19T12:12:29.800Z,75.91
2022-11-19T12:14:56.024Z,76.41
2022-11-19T12:17:22.280Z,76.76
2022-11-19T12:19:48.511Z,78.21
2022-11-19T12:22:14.851Z,78.47
2022-11-19T12:24:41.079Z,79.13
2022-11-19T12:27:07.330Z,79.03
2022-11-19T12:29:33.568Z,78.01
2022-11-19T12:31:59.799Z,77.67
2022-11-19T12:34:26.028Z,78.04
2022-11-19T12:36:56.691Z,78.95
2022-11-19T12:39:23.083Z,79.46
2022-11-19T12:41:49.356Z,78.70
2022-11-19T12:44:15.596Z,78.96
2022-11-19T12:46:41.959Z,78.70
2022-11-19T12:49:08.557Z,77.66
2022-11-19T12:51:35.889Z,76.42
2022-11-19T12:54:02.252Z,78.55
2022-11-19T12:56:28.494Z,78.54
2022-11-19T12:58:54.966Z,78.18
2022-11-19T13:01:21.291Z,78.34
2022-11-19T13:03:47.637Z,77.37
2022-11-19T13:06:17.822Z,79.04
2022-11-19T13:08:44.392Z,78.24
2022-11-19T13:11:12.413Z,78.14
2022-11-19T13:13:38.772Z,80.30
2022-11-19T13:16:05.063Z,80.46
2022-11-19T13:18:31.324Z,80.23
2022-11-19T13:20:57.585Z,80.94
2022-11-19T13:23:23.833Z,82.46
2022-11-19T13:25:50.118Z,81.30
2022-11-19T13:28:16.414Z,83.43
2022-11-19T13:30:42.693Z,82.16
2022-11-19T13:33:09.080Z,83.89
2022-11-19T13:35:35.365Z,82.31
2022-11-19T13:38:01.650Z,81.90
2022-11-19T13:40:27.917Z,85.00
2022-11-19T13:43:31.645Z,84.27
2022-11-19T13:45:59.000Z,84.66
2022-11-19T13:48:25.370Z,85.61
2022-11-19T13:50:52.662Z,85.13
2022-11-19T13:53:19.061Z,84.35
2022-11-19T13:55:45.287Z,84.92
2022-11-19T13:58:11.568Z,85.49
2022-11-19T14:00:37.903Z,87.62
2022-11-19T14:03:04.278Z,86.52
2022-11-19T14:05:30.554Z,85.57
2022-11-19T14:07:57.043Z,86.04
2022-11-19T14:10:23.630Z,86.09
2022-11-19T14:12:49.917Z,86.46
2022-11-19T14:31:37.733Z,87.13
2022-11-19T14:34:04.414Z,85.88
2022-11-19T14:36:30.942Z,87.52
2022-11-19T14:38:57.318Z,87.13
2022-11-19T15:29:47.792Z,90.76
2022-11-19T15:45:36.649Z,91.49
2022-11-19T16:04:18.639Z,93.24
2022-11-19T16:17:49.575Z,91.81
2022-11-19T16:20:25.012Z,92.73
2022-11-19T16:22:52.034Z,89.93
2022-11-19T16:35:52.619Z,92.10
2022-11-19T16:38:28.508Z,91.95
2022-11-19T16:52:08.562Z,89.65
2022-11-19T16:54:39.273Z,88.57
2022-11-19T16:59:37.642Z,90.05
2022-11-19T17:36:45.100Z,93.65
2022-11-19T17:39:11.623Z,90.86
2022-11-19T17:44:24.953Z,88.22
2022-11-19T17:46:51.370Z,87.73
2022-11-19T17:49:22.476Z,88.19
2022-11-19T17:51:48.949Z,87.98
2022-11-19T17:54:15.350Z,88.17
2022-11-19T17:56:55.290Z,87.52
2022-11-19T17:59:44.019Z,88.38
2022-11-19T18:08:26.916Z,87.50
2022-11-19T18:10:53.348Z,87.13
2022-11-19T18:16:01.302Z,87.69
2022-11-19T18:18:27.742Z,87.58
2022-11-19T18:21:02.181Z,87.86
2022-11-19T18:23:29.411Z,87.42
2022-11-19T18:25:57.407Z,87.22
2022-11-19T18:28:24.271Z,87.51
2022-11-19T18:30:52.535Z,87.83
2022-11-19T18:33:19.996Z,88.11
2022-11-19T18:35:48.870Z,87.29
2022-11-19T18:38:17.934Z,87.77
2022-11-19T18:43:43.626Z,87.22
2022-11-19T18:46:13.038Z,87.11
2022-11-19T18:48:41.010Z,86.94
2022-11-19T18:51:07.461Z,87.71
2022-11-19T18:53:33.880Z,86.89
2022-11-19T18:56:00.735Z,87.17
2022-11-19T18:58:30.161Z,87.70
2022-11-19T19:00:57.910Z,87.89
2022-11-19T19:03:24.350Z,86.93
2022-11-19T19:05:51.096Z,87.32
2022-11-19T19:08:17.374Z,87.96
2022-11-19T19:10:43.667Z,87.27
2022-11-19T19:13:09.956Z,87.39
2022-11-19T19:15:36.268Z,87.60
2022-11-19T19:18:07.754Z,87.50
2022-11-19T19:20:36.880Z,88.38
2022-11-19T19:23:03.626Z,86.01
2022-11-19T19:25:29.934Z,87.19
2022-11-19T19:27:56.231Z,87.25
2022-11-19T19:30:22.496Z,87.25
2022-11-19T19:32:48.877Z,86.98
2022-11-19T19:35:18.205Z,87.24
2022-11-19T19:37:45.070Z,87.45
2022-11-19T19:40:11.415Z,87.00
2022-11-19T19:42:41.230Z,87.14
2022-11-19T19:45:07.937Z,87.11
2022-11-19T19:47:34.236Z,86.91
2022-11-19T19:50:00.480Z,87.29
2022-11-19T19:52:26.747Z,86.39
2022-11-19T19:54:53.137Z,86.94
2022-11-19T19:57:19.403Z,86.70
2022-11-19T19:59:45.690Z,87.35
2022-11-19T20:02:12.091Z,86.39
2022-11-19T20:04:38.360Z,87.59
2022-11-19T20:07:04.651Z,87.30
2022-11-19T20:09:30.912Z,87.93
2022-11-19T20:11:57.195Z,88.02
2022-11-19T20:14:23.478Z,88.00
2022-11-19T20:16:50.513Z,87.63
2022-11-19T20:19:16.885Z,88.65
2022-11-19T20:21:47.206Z,87.70
2022-11-19T20:24:14.142Z,88.32
2022-11-19T20:26:44.010Z,87.55
2022-11-19T20:29:10.451Z,88.11
2022-11-19T20:31:39.872Z,87.32
2022-11-19T20:34:09.361Z,87.54
2022-11-19T20:36:35.653Z,87.69
2022-11-19T20:39:02.127Z,87.67
2022-11-19T20:41:47.275Z,87.87
2022-11-19T20:44:27.496Z,87.68
2022-11-19T20:46:54.915Z,87.43
2022-11-19T20:49:21.774Z,87.54
2022-11-19T20:51:50.615Z,87.71
2022-11-19T20:54:19.999Z,87.00
2022-11-19T20:56:46.573Z,86.66
2022-11-19T20:59:12.933Z,86.62
2022-11-19T21:01:41.793Z,85.90
2022-11-19T21:04:08.657Z,86.17
2022-11-19T21:06:37.895Z,85.78
2022-11-19T21:09:04.302Z,85.49
2022-11-19T21:11:33.097Z,85.41
2022-11-19T21:13:59.689Z,85.07
2022-11-19T21:16:29.046Z,86.93
2022-11-19T21:18:55.515Z,86.36
2022-11-19T21:21:24.394Z,85.85
2022-11-19T21:23:50.791Z,85.73
2022-11-19T21:26:17.273Z,86.09
2022-11-19T21:28:46.177Z,86.05
2022-11-19T21:31:14.947Z,86.03
2022-11-19T21:36:18.863Z,86.39
2022-11-19T21:38:47.645Z,85.80
2022-11-19T21:41:17.004Z,85.78
2022-11-19T21:43:43.383Z,85.65
2022-11-19T21:48:55.848Z,85.75
2022-11-19T21:51:24.889Z,85.31
2022-11-19T21:53:51.911Z,85.35
2022-11-19T21:56:19.145Z,85.36
2022-11-19T21:58:45.708Z,85.23
2022-11-19T22:01:12.309Z,86.02
2022-11-19T22:03:38.726Z,85.62
2022-11-19T22:06:05.127Z,85.72
2022-11-19T22:08:31.508Z,85.81
2022-11-19T22:10:58.181Z,85.61
2022-11-19T22:13:29.390Z,85.91
2022-11-19T22:15:59.520Z,85.39
2022-11-19T22:18:28.264Z,85.76
2022-11-19T22:20:57.545Z,84.92
2022-11-19T22:26:13.173Z,86.34
2022-11-19T22:28:39.588Z,86.00
2022-11-19T22:31:05.921Z,86.45
2022-11-19T22:33:35.171Z,85.05
2022-11-19T22:36:09.267Z,85.35
2022-11-19T22:38:38.192Z,85.61
2022-11-19T22:41:07.525Z,85.44
2022-11-19T22:43:36.700Z,85.15
2022-11-19T22:54:03.328Z,84.45
2022-11-19T22:56:29.838Z,84.29
2022-11-19T22:58:56.183Z,86.07
2022-11-19T23:01:22.653Z,85.87
2022-11-19T23:03:49.149Z,85.25
2022-11-19T23:06:19.029Z,85.78
2022-11-19T23:08:45.610Z,84.41
2022-11-19T23:11:12.053Z,84.41
2022-11-19T23:13:39.162Z,84.16
2022-11-19T23:16:05.933Z,84.87
2022-11-19T23:18:35.726Z,85.05
2022-11-19T23:21:02.240Z,85.20
2022-11-19T23:23:31.019Z,84.66
2022-11-19T23:25:59.801Z,85.65
2022-11-19T23:28:28.701Z,84.91
2022-11-19T23:30:55.024Z,84.84
2022-11-19T23:33:24.249Z,84.81
2022-11-19T23:35:50.599Z,84.22
2022-11-19T23:38:19.775Z,85.21
2022-11-19T23:40:49.048Z,84.60
2022-11-19T23:45:59.141Z,84.78
2022-11-19T23:48:25.938Z,83.74
2022-11-19T23:50:52.562Z,83.71
2022-11-19T23:53:20.833Z,83.23
2022-11-19T23:58:15.140Z,83.11
